createdAt,value
2023-05-19T13:41:47.713Z,100528.60
2023-05-19T13:44:15.917Z,100531.40
2023-05-19T13:46:45.142Z,100544.20
2023-05-19T13:49:13.053Z,100545.40
2023-05-19T13:51:42.343Z,100546.00
2023-05-19T13:54:09.442Z,100549.60
2023-05-19T13:56:36.997Z,100537.80
2023-05-19T13:59:04.323Z,100555.00
2023-05-19T14:01:31.835Z,100553.80
2023-05-19T14:03:58.622Z,100562.00
2023-05-19T14:06:25.520Z,100560.80
2023-05-19T14:08:52.420Z,100562.40
2023-05-19T14:11:20.890Z,100570.60
2023-05-19T14:13:52.510Z,100557.40
2023-05-19T14:16:21.278Z,100543.20
2023-05-19T14:18:48.556Z,100529.80
2023-05-19T14:21:15.259Z,100529.80
2023-05-19T14:23:42.174Z,100519.80
2023-05-19T14:26:08.805Z,100519.20
2023-05-19T14:28:35.402Z,100506.00
2023-05-19T14:31:02.191Z,100494.00
2023-05-19T14:33:32.779Z,100480.20
2023-05-19T14:36:01.608Z,100486.80
2023-05-19T14:38:29.412Z,100491.60
2023-05-19T14:40:56.499Z,100475.20
2023-05-19T14:43:23.214Z,100467.40
2023-05-19T14:45:49.759Z,100459.00
2023-05-19T14:48:16.679Z,100461.40
2023-05-19T14:50:43.635Z,100464.00
2023-05-19T14:53:10.355Z,100458.20
2023-05-19T14:55:37.128Z,100450.40
2023-05-19T14:58:07.891Z,100451.20
2023-05-19T15:00:43.321Z,100449.80
2023-05-19T15:03:11.207Z,100453.60
2023-05-19T15:05:39.686Z,100457.00
2023-05-19T15:08:06.490Z,100455.40
2023-05-19T15:10:33.382Z,100462.60
2023-05-19T15:13:01.115Z,100458.80
2023-05-19T15:15:27.644Z,100461.60
2023-05-19T15:17:54.362Z,100467.80
2023-05-19T15:20:21.275Z,100473.00
2023-05-19T15:22:48.208Z,100480.40
2023-05-19T15:25:14.831Z,100480.40
2023-05-19T15:27:41.394Z,100483.60
2023-05-19T15:30:08.242Z,100486.20
2023-05-19T15:32:35.030Z,100486.00
2023-05-19T15:35:01.821Z,100487.40
2023-05-19T15:37:28.916Z,100492.00
2023-05-19T15:39:55.510Z,100493.40
2023-05-19T15:42:22.010Z,100492.80
2023-05-19T15:44:48.518Z,100490.60
2023-05-19T15:47:15.294Z,100489.20
2023-05-19T15:49:42.026Z,100495.80
2023-05-19T15:52:09.070Z,100496.80
2023-05-19T15:54:35.809Z,100491.60
2023-05-19T15:57:02.657Z,100493.20
2023-05-19T15:59:29.394Z,100490.60
2023-05-19T16:01:56.247Z,100489.80
2023-05-19T16:04:22.941Z,100488.40
2023-05-19T16:06:50.058Z,100480.60
2023-05-19T16:09:16.742Z,100478.00
2023-05-19T16:11:43.472Z,100481.40
2023-05-19T16:14:10.029Z,100478.20
2023-05-19T16:16:36.704Z,100474.60
2023-05-19T16:19:03.518Z,100472.40
2023-05-19T16:21:31.510Z,100469.20
2023-05-19T16:23:58.276Z,100465.80
2023-05-19T16:26:25.709Z,100458.80
2023-05-19T16:28:52.273Z,100457.40
2023-05-19T16:31:19.123Z,100455.00
2023-05-19T16:33:46.104Z,100451.60
2023-05-19T16:36:12.951Z,100456.40
2023-05-19T16:38:39.396Z,100458.80
2023-05-19T16:41:06.635Z,100458.00
